Omar B — J8B4578 — position and weather

sailwx.info

Track history (hours):
 
Tides and Currents Weather Stations Pressure Air Temp Water Temp Dewpoint Dewpoint Depression Visibility Wind Speed Wind Dir Waves Ship Positions

Omar B

Last reported at 2017-Nov-29 14:52 UTC. Time now 2017-Dec-14 00:44 UTC.
Position N 37°48' E 026°29'.
Warning: this ship's position is 14 days out of date.

Length 136 m; draft 4.9 m.

Type: Cargo ship. MMSI: 376964000.

Date/timePositionNaut miles runAvg speedWind from/ knotsBaromVisibWave heightAir tempDewpointWater temp
2017-Nov-29 14:52N 37°48' E 026°29'410.3
2017-Nov-29 14:27N 37°52' E 026°26'510.4
2017-Nov-29 13:59N 37°56' E 026°23'  
2017-Nov-26 07:53N 46°37' E 031°52'7 9.2
2017-Nov-26 07:08N 46°43' E 031°56'1 9.1
2017-Nov-26 07:00N 46°44' E 031°55'4 8.8
2017-Nov-26 06:30N 46°49' E 031°54'510.3
2017-Nov-26 06:01N 46°52' E 031°59'4 8.1
2017-Nov-26 05:30N 46°56' E 032°01'0 0.7
2017-Nov-26 05:00N 46°57' E 032°00'0 0.0
2017-Nov-26 04:30N 46°57' E 032°00'0 0.0
2017-Nov-26 04:00N 46°57' E 032°00'0 0.0
2017-Nov-26 03:30N 46°57' E 032°00'0 0.0
2017-Nov-26 03:00N 46°57' E 032°00'0 0.0
2017-Nov-26 02:30N 46°57' E 032°00'0 0.0
2017-Nov-26 02:00N 46°57' E 032°00'0 0.0
2017-Nov-26 01:30N 46°57' E 032°00'0 0.1
2017-Nov-26 00:57N 46°57' E 032°01'0 0.0
2017-Nov-26 00:27N 46°57' E 032°01'0 0.0
2017-Nov-26 00:00N 46°57' E 032°01'0 0.0
2017-Nov-25 23:30N 46°57' E 032°01'0 0.0
2017-Nov-25 23:00N 46°57' E 032°01'0 0.0
2017-Nov-25 22:27N 46°57' E 032°01'0 0.0
2017-Nov-25 22:00N 46°57' E 032°01'0 0.1
2017-Nov-25 21:30N 46°57' E 032°00'0 0.4
2017-Nov-25 21:00N 46°57' E 032°00'0 0.9
2017-Nov-25 20:29N 46°57' E 031°60'0 0.0
2017-Nov-25 19:59N 46°57' E 031°60'0 0.0
2017-Nov-25 19:29N 46°57' E 031°60'0 0.0
2017-Nov-25 18:59N 46°57' E 031°60'0 0.0
2017-Nov-25 18:29N 46°57' E 031°60'0 0.0
2017-Nov-25 17:59N 46°57' E 031°60'0 0.0
2017-Nov-25 17:29N 46°57' E 031°60'0 0.0
2017-Nov-25 16:59N 46°57' E 031°60'0 0.0
2017-Nov-25 16:29N 46°57' E 031°60'0 0.0
2017-Nov-25 15:59N 46°57' E 031°60'0 0.0
2017-Nov-25 15:29N 46°57' E 031°60'0 0.0
2017-Nov-25 14:59N 46°57' E 031°60'0 0.0
2017-Nov-25 14:29N 46°57' E 031°60'0 0.0
2017-Nov-25 13:59N 46°57' E 031°60'0 0.0
2017-Nov-25 13:29N 46°57' E 031°60'0 0.0
2017-Nov-25 12:59N 46°57' E 031°60'0 0.0
2017-Nov-25 12:29N 46°57' E 031°60'0 0.0
2017-Nov-25 11:59N 46°57' E 031°60'0 0.0
2017-Nov-25 11:29N 46°57' E 031°60'0 0.0
2017-Nov-25 10:59N 46°57' E 031°60'0 0.0
2017-Nov-25 10:29N 46°57' E 031°60'0 0.0
2017-Nov-25 09:59N 46°57' E 031°60'0 0.0
2017-Nov-25 09:29N 46°57' E 031°60'0 0.0
2017-Nov-25 08:59N 46°57' E 031°60'0 0.0
2017-Nov-25 08:29N 46°57' E 031°60'0 0.0
2017-Nov-25 07:56N 46°57' E 031°60'0 0.0
2017-Nov-25 07:26N 46°57' E 031°60'0 0.0
2017-Nov-25 06:56N 46°57' E 031°60'0 0.0
2017-Nov-25 06:26N 46°57' E 031°60'0 0.0
2017-Nov-25 05:56N 46°57' E 031°60'0 0.0
2017-Nov-25 05:20N 46°57' E 031°60'0 0.0
2017-Nov-25 04:56N 46°57' E 031°60'0 0.0
2017-Nov-25 04:26N 46°57' E 031°60'0 0.0
2017-Nov-25 03:56N 46°57' E 031°60'0 0.0
2017-Nov-25 03:26N 46°57' E 031°60'0 0.0
2017-Nov-25 02:56N 46°57' E 031°60'0 0.0
2017-Nov-25 02:26N 46°57' E 031°60'0 0.0
2017-Nov-25 01:56N 46°57' E 031°60'0 0.0
2017-Nov-25 01:26N 46°57' E 031°60'0 0.0
2017-Nov-25 00:56N 46°57' E 031°60'0 0.0
2017-Nov-25 00:26N 46°57' E 031°60'0 0.0
2017-Nov-24 23:56N 46°57' E 031°60'0 0.0
2017-Nov-24 23:26N 46°57' E 031°60'0 0.0
2017-Nov-24 22:56N 46°57' E 031°60'0 0.0
2017-Nov-24 22:26N 46°57' E 031°60'0 0.0
2017-Nov-24 21:56N 46°57' E 031°60'0 0.0
2017-Nov-24 21:26N 46°57' E 031°60'0 0.0
2017-Nov-24 20:59N 46°57' E 031°60'0 0.0
2017-Nov-24 20:29N 46°57' E 031°60'0 0.0
2017-Nov-24 19:56N 46°57' E 031°60'0 0.0
2017-Nov-24 19:26N 46°57' E 031°60'0 0.0
2017-Nov-24 18:56N 46°57' E 031°60'0 0.0
2017-Nov-24 18:26N 46°57' E 031°60'0 0.0
2017-Nov-24 17:59N 46°57' E 031°60'0 0.0
2017-Nov-24 17:26N 46°57' E 031°60'0 0.0
2017-Nov-24 16:59N 46°57' E 031°60'0 0.0
2017-Nov-24 16:29N 46°57' E 031°60'0 0.0
2017-Nov-24 15:59N 46°57' E 031°60'0 0.0
2017-Nov-24 15:29N 46°57' E 031°60'0 0.0
2017-Nov-24 14:59N 46°57' E 031°60'0 0.1
2017-Nov-24 14:30N 46°57' E 031°60'1 1.1
2017-Nov-24 14:00N 46°56' E 032°00'0 0.1
2017-Nov-24 13:28N 46°56' E 032°00'0 0.0
2017-Nov-24 12:58N 46°56' E 032°00'0 0.1
2017-Nov-24 12:28N 46°56' E 032°00'0 0.1
2017-Nov-24 11:58N 46°56' E 032°00'0 0.0
2017-Nov-24 11:25N 46°56' E 032°00'0 0.0
2017-Nov-24 10:58N 46°56' E 032°00'0 0.0
2017-Nov-24 10:28N 46°56' E 032°00'0 0.0
2017-Nov-24 09:58N 46°56' E 032°00'0 0.0
2017-Nov-24 09:28N 46°56' E 032°00'0 0.0
2017-Nov-24 08:58N 46°56' E 032°00'0 0.0
2017-Nov-24 08:28N 46°56' E 032°00'0 0.0
2017-Nov-24 07:55N 46°56' E 032°00'0 0.0
2017-Nov-24 07:28N 46°56' E 032°00'0 0.0
2017-Nov-24 06:58N 46°56' E 032°00'0 0.0
2017-Nov-24 06:28N 46°56' E 032°00'0 0.0
2017-Nov-24 05:58N 46°56' E 032°00'0 0.0
2017-Nov-24 05:28N 46°56' E 032°00'0 0.0
2017-Nov-24 04:58N 46°56' E 032°00'0 0.0
2017-Nov-24 04:28N 46°56' E 032°00'0 0.0
2017-Nov-24 03:55N 46°56' E 032°00'0 0.0
2017-Nov-24 03:28N 46°56' E 032°00'0 0.0
2017-Nov-24 02:58N 46°56' E 032°00'0 0.0
2017-Nov-24 02:28N 46°56' E 032°00'0 0.0
2017-Nov-24 01:58N 46°56' E 032°00'0 0.0
2017-Nov-24 01:28N 46°56' E 032°00'0 0.0
2017-Nov-24 00:58N 46°56' E 032°00'0 0.0
2017-Nov-24 00:28N 46°56' E 032°00'0 0.0
2017-Nov-23 23:58N 46°56' E 032°00'0 0.0
2017-Nov-23 23:28N 46°56' E 032°00'0 0.0
2017-Nov-23 22:58N 46°56' E 032°00'0 0.0
2017-Nov-23 22:28N 46°56' E 032°00'0 0.0
2017-Nov-23 21:58N 46°56' E 032°00'0 0.0
2017-Nov-23 21:28N 46°56' E 032°00'0 0.0
2017-Nov-23 20:55N 46°56' E 032°00'0 0.1
2017-Nov-23 20:28N 46°56' E 032°00'0 0.1
2017-Nov-23 19:58N 46°56' E 032°00'0 0.0
2017-Nov-23 19:28N 46°56' E 032°00'0 0.0
2017-Nov-23 18:58N 46°56' E 032°00'0 0.0
2017-Nov-23 18:28N 46°56' E 032°00'0 0.0
2017-Nov-23 17:58N 46°56' E 032°00'0 0.0
2017-Nov-23 17:28N 46°56' E 032°00'0 0.0
2017-Nov-23 16:58N 46°56' E 032°00'0 0.0
2017-Nov-23 16:28N 46°56' E 032°00'0 0.0
2017-Nov-23 15:58N 46°56' E 032°00'0 0.0
2017-Nov-23 15:28N 46°56' E 032°00'0 0.0
2017-Nov-23 14:58N 46°56' E 032°00'0 0.0
2017-Nov-23 14:25N 46°56' E 032°00'0 0.1
2017-Nov-23 13:58N 46°56' E 032°00'0 0.1
2017-Nov-23 13:28N 46°56' E 032°00'0 0.0
2017-Nov-23 12:55N 46°56' E 032°00'0 0.1
2017-Nov-23 12:28N 46°56' E 032°00'0 0.0
2017-Nov-23 11:58N 46°56' E 032°00'0 0.0
2017-Nov-23 11:28N 46°56' E 032°00'0 0.0
2017-Nov-23 10:55N 46°56' E 032°00'0 0.0
2017-Nov-23 10:28N 46°56' E 032°00'0 0.0
2017-Nov-23 09:58N 46°56' E 032°00'0 0.0
2017-Nov-23 09:28N 46°56' E 032°00'0 0.0
2017-Nov-23 08:55N 46°56' E 032°00'0 0.0
2017-Nov-23 08:28N 46°56' E 032°00'0 0.0
2017-Nov-23 07:58N 46°56' E 032°00'0 0.1
2017-Nov-23 07:28N 46°56' E 032°00'0 0.0
2017-Nov-23 06:58N 46°56' E 032°00'0 0.0
2017-Nov-23 06:28N 46°56' E 032°00'0 0.5
2017-Nov-23 06:01N 46°56' E 032°00'4 7.6
2017-Nov-23 05:31N 46°52' E 031°59'612.1
2017-Nov-23 05:00N 46°48' E 031°53'611.1
2017-Nov-23 04:30N 46°43' E 031°56'  
Track history (hours):
 
Tides and Currents Weather Stations Pressure Air Temp Water Temp Dewpoint Dewpoint Depression Visibility Wind Speed Wind Dir Waves Ship Positions

Omar B

Last reported at 2017-Nov-29 14:52 UTC. Time now 2017-Dec-14 00:44 UTC.
Position N 37°48' E 026°29'.
Warning: this ship's position is 14 days out of date.

Length 136 m; draft 4.9 m.

Type: Cargo ship. MMSI: 376964000.

Date/timePositionNaut miles runAvg speedWind from/ knotsBaromVisibWave heightAir tempDewpointWater temp
2017-Nov-29 14:52N 37°48' E 026°29'410.3
2017-Nov-29 14:27N 37°52' E 026°26'510.4
2017-Nov-29 13:59N 37°56' E 026°23'  
2017-Nov-26 07:53N 46°37' E 031°52'7 9.2
2017-Nov-26 07:08N 46°43' E 031°56'1 9.1
2017-Nov-26 07:00N 46°44' E 031°55'4 8.8
2017-Nov-26 06:30N 46°49' E 031°54'510.3
2017-Nov-26 06:01N 46°52' E 031°59'4 8.1
2017-Nov-26 05:30N 46°56' E 032°01'0 0.7
2017-Nov-26 05:00N 46°57' E 032°00'0 0.0
2017-Nov-26 04:30N 46°57' E 032°00'0 0.0
2017-Nov-26 04:00N 46°57' E 032°00'0 0.0
2017-Nov-26 03:30N 46°57' E 032°00'0 0.0
2017-Nov-26 03:00N 46°57' E 032°00'0 0.0
2017-Nov-26 02:30N 46°57' E 032°00'0 0.0
2017-Nov-26 02:00N 46°57' E 032°00'0 0.0
2017-Nov-26 01:30N 46°57' E 032°00'0 0.1
2017-Nov-26 00:57N 46°57' E 032°01'0 0.0
2017-Nov-26 00:27N 46°57' E 032°01'0 0.0
2017-Nov-26 00:00N 46°57' E 032°01'0 0.0
2017-Nov-25 23:30N 46°57' E 032°01'0 0.0
2017-Nov-25 23:00N 46°57' E 032°01'0 0.0
2017-Nov-25 22:27N 46°57' E 032°01'0 0.0
2017-Nov-25 22:00N 46°57' E 032°01'0 0.1
2017-Nov-25 21:30N 46°57' E 032°00'0 0.4
2017-Nov-25 21:00N 46°57' E 032°00'0 0.9
2017-Nov-25 20:29N 46°57' E 031°60'0 0.0
2017-Nov-25 19:59N 46°57' E 031°60'0 0.0
2017-Nov-25 19:29N 46°57' E 031°60'0 0.0
2017-Nov-25 18:59N 46°57' E 031°60'0 0.0
2017-Nov-25 18:29N 46°57' E 031°60'0 0.0
2017-Nov-25 17:59N 46°57' E 031°60'0 0.0
2017-Nov-25 17:29N 46°57' E 031°60'0 0.0
2017-Nov-25 16:59N 46°57' E 031°60'0 0.0
2017-Nov-25 16:29N 46°57' E 031°60'0 0.0
2017-Nov-25 15:59N 46°57' E 031°60'0 0.0
2017-Nov-25 15:29N 46°57' E 031°60'0 0.0
2017-Nov-25 14:59N 46°57' E 031°60'0 0.0
2017-Nov-25 14:29N 46°57' E 031°60'0 0.0
2017-Nov-25 13:59N 46°57' E 031°60'0 0.0
2017-Nov-25 13:29N 46°57' E 031°60'0 0.0
2017-Nov-25 12:59N 46°57' E 031°60'0 0.0
2017-Nov-25 12:29N 46°57' E 031°60'0 0.0
2017-Nov-25 11:59N 46°57' E 031°60'0 0.0
2017-Nov-25 11:29N 46°57' E 031°60'0 0.0
2017-Nov-25 10:59N 46°57' E 031°60'0 0.0
2017-Nov-25 10:29N 46°57' E 031°60'0 0.0
2017-Nov-25 09:59N 46°57' E 031°60'0 0.0
2017-Nov-25 09:29N 46°57' E 031°60'0 0.0
2017-Nov-25 08:59N 46°57' E 031°60'0 0.0
2017-Nov-25 08:29N 46°57' E 031°60'0 0.0
2017-Nov-25 07:56N 46°57' E 031°60'0 0.0
2017-Nov-25 07:26N 46°57' E 031°60'0 0.0
2017-Nov-25 06:56N 46°57' E 031°60'0 0.0
2017-Nov-25 06:26N 46°57' E 031°60'0 0.0
2017-Nov-25 05:56N 46°57' E 031°60'0 0.0
2017-Nov-25 05:20N 46°57' E 031°60'0 0.0
2017-Nov-25 04:56N 46°57' E 031°60'0 0.0
2017-Nov-25 04:26N 46°57' E 031°60'0 0.0
2017-Nov-25 03:56N 46°57' E 031°60'0 0.0
2017-Nov-25 03:26N 46°57' E 031°60'0 0.0
2017-Nov-25 02:56N 46°57' E 031°60'0 0.0
2017-Nov-25 02:26N 46°57' E 031°60'0 0.0
2017-Nov-25 01:56N 46°57' E 031°60'0 0.0
2017-Nov-25 01:26N 46°57' E 031°60'0 0.0
2017-Nov-25 00:56N 46°57' E 031°60'0 0.0
2017-Nov-25 00:26N 46°57' E 031°60'0 0.0
2017-Nov-24 23:56N 46°57' E 031°60'0 0.0
2017-Nov-24 23:26N 46°57' E 031°60'0 0.0
2017-Nov-24 22:56N 46°57' E 031°60'0 0.0
2017-Nov-24 22:26N 46°57' E 031°60'0 0.0
2017-Nov-24 21:56N 46°57' E 031°60'0 0.0
2017-Nov-24 21:26N 46°57' E 031°60'0 0.0
2017-Nov-24 20:59N 46°57' E 031°60'0 0.0
2017-Nov-24 20:29N 46°57' E 031°60'0 0.0
2017-Nov-24 19:56N 46°57' E 031°60'0 0.0
2017-Nov-24 19:26N 46°57' E 031°60'0 0.0
2017-Nov-24 18:56N 46°57' E 031°60'0 0.0
2017-Nov-24 18:26N 46°57' E 031°60'0 0.0
2017-Nov-24 17:59N 46°57' E 031°60'0 0.0
2017-Nov-24 17:26N 46°57' E 031°60'0 0.0
2017-Nov-24 16:59N 46°57' E 031°60'0 0.0
2017-Nov-24 16:29N 46°57' E 031°60'0 0.0
2017-Nov-24 15:59N 46°57' E 031°60'0 0.0
2017-Nov-24 15:29N 46°57' E 031°60'0 0.0
2017-Nov-24 14:59N 46°57' E 031°60'0 0.1
2017-Nov-24 14:30N 46°57' E 031°60'1 1.1
2017-Nov-24 14:00N 46°56' E 032°00'0 0.1
2017-Nov-24 13:28N 46°56' E 032°00'0 0.0
2017-Nov-24 12:58N 46°56' E 032°00'0 0.1
2017-Nov-24 12:28N 46°56' E 032°00'0 0.1
2017-Nov-24 11:58N 46°56' E 032°00'0 0.0
2017-Nov-24 11:25N 46°56' E 032°00'0 0.0
2017-Nov-24 10:58N 46°56' E 032°00'0 0.0
2017-Nov-24 10:28N 46°56' E 032°00'0 0.0
2017-Nov-24 09:58N 46°56' E 032°00'0 0.0
2017-Nov-24 09:28N 46°56' E 032°00'0 0.0
2017-Nov-24 08:58N 46°56' E 032°00'0 0.0
2017-Nov-24 08:28N 46°56' E 032°00'0 0.0
2017-Nov-24 07:55N 46°56' E 032°00'0 0.0
2017-Nov-24 07:28N 46°56' E 032°00'0 0.0
2017-Nov-24 06:58N 46°56' E 032°00'0 0.0
2017-Nov-24 06:28N 46°56' E 032°00'0 0.0
2017-Nov-24 05:58N 46°56' E 032°00'0 0.0
2017-Nov-24 05:28N 46°56' E 032°00'0 0.0
2017-Nov-24 04:58N 46°56' E 032°00'0 0.0
2017-Nov-24 04:28N 46°56' E 032°00'0 0.0
2017-Nov-24 03:55N 46°56' E 032°00'0 0.0
2017-Nov-24 03:28N 46°56' E 032°00'0 0.0
2017-Nov-24 02:58N 46°56' E 032°00'0 0.0
2017-Nov-24 02:28N 46°56' E 032°00'0 0.0
2017-Nov-24 01:58N 46°56' E 032°00'0 0.0
2017-Nov-24 01:28N 46°56' E 032°00'0 0.0
2017-Nov-24 00:58N 46°56' E 032°00'0 0.0
2017-Nov-24 00:28N 46°56' E 032°00'0 0.0
2017-Nov-23 23:58N 46°56' E 032°00'0 0.0
2017-Nov-23 23:28N 46°56' E 032°00'0 0.0
2017-Nov-23 22:58N 46°56' E 032°00'0 0.0
2017-Nov-23 22:28N 46°56' E 032°00'0 0.0
2017-Nov-23 21:58N 46°56' E 032°00'0 0.0
2017-Nov-23 21:28N 46°56' E 032°00'0 0.0
2017-Nov-23 20:55N 46°56' E 032°00'0 0.1
2017-Nov-23 20:28N 46°56' E 032°00'0 0.1
2017-Nov-23 19:58N 46°56' E 032°00'0 0.0
2017-Nov-23 19:28N 46°56' E 032°00'0 0.0
2017-Nov-23 18:58N 46°56' E 032°00'0 0.0
2017-Nov-23 18:28N 46°56' E 032°00'0 0.0
2017-Nov-23 17:58N 46°56' E 032°00'0 0.0
2017-Nov-23 17:28N 46°56' E 032°00'0 0.0
2017-Nov-23 16:58N 46°56' E 032°00'0 0.0
2017-Nov-23 16:28N 46°56' E 032°00'0 0.0
2017-Nov-23 15:58N 46°56' E 032°00'0 0.0
2017-Nov-23 15:28N 46°56' E 032°00'0 0.0
2017-Nov-23 14:58N 46°56' E 032°00'0 0.0
2017-Nov-23 14:25N 46°56' E 032°00'0 0.1
2017-Nov-23 13:58N 46°56' E 032°00'0 0.1
2017-Nov-23 13:28N 46°56' E 032°00'0 0.0
2017-Nov-23 12:55N 46°56' E 032°00'0 0.1
2017-Nov-23 12:28N 46°56' E 032°00'0 0.0
2017-Nov-23 11:58N 46°56' E 032°00'0 0.0
2017-Nov-23 11:28N 46°56' E 032°00'0 0.0
2017-Nov-23 10:55N 46°56' E 032°00'0 0.0
2017-Nov-23 10:28N 46°56' E 032°00'0 0.0
2017-Nov-23 09:58N 46°56' E 032°00'0 0.0
2017-Nov-23 09:28N 46°56' E 032°00'0 0.0
2017-Nov-23 08:55N 46°56' E 032°00'0 0.0
2017-Nov-23 08:28N 46°56' E 032°00'0 0.0
2017-Nov-23 07:58N 46°56' E 032°00'0 0.1
2017-Nov-23 07:28N 46°56' E 032°00'0 0.0
2017-Nov-23 06:58N 46°56' E 032°00'0 0.0
2017-Nov-23 06:28N 46°56' E 032°00'0 0.5
2017-Nov-23 06:01N 46°56' E 032°00'4 7.6
2017-Nov-23 05:31N 46°52' E 031°59'612.1
2017-Nov-23 05:00N 46°48' E 031°53'611.1
2017-Nov-23 04:30N 46°43' E 031°56'  

Dump ship's entire track history